Time;durP1;ratioP1;P1;durP2;ratioP2;P2;SDS_P1;SDS_P2;PMS_P1;PMS_P2;Temp;Humidity;BMP_temperature;BMP_pressure;BME280_temperature;BME280_humidity;BME280_pressure;Samples;Min_cycle;Max_cycle;Signal;HPM_P1;HPM_P2
2022/11/02 00:01:20;;;;;;;5.23;1.47;;;;;;;;;;4996880;28;20250;-84
2022/11/02 00:03:50;;;;;;;4.30;1.73;;;;;;;;;;5011957;28;20219;-85
2022/11/02 00:06:18;;;;;;;4.70;2.33;;;;;;;;;;5014459;28;20241;-85
2022/11/02 00:08:44;;;;;;;7.73;3.07;;;;;;;;;;5029447;28;20384;-84
2022/11/02 00:11:10;;;;;;;10.93;6.13;;;;;;;;;;4991539;28;20233;-85
2022/11/02 00:13:37;;;;;;;12.60;7.83;;;;;;;;;;5032371;28;20219;-83
2022/11/02 00:16:08;;;;;;;17.37;9.60;;;;;;;;;;5022551;28;20326;-83
2022/11/02 00:18:36;;;;;;;37.47;17.90;;;;;;;;;;5019127;28;20227;-84
2022/11/02 00:21:01;;;;;;;26.67;13.10;;;;;;;;;;5050657;28;20235;-84
2022/11/02 00:23:27;;;;;;;39.50;18.37;;;;;;;;;;5009131;28;20279;-84
2022/11/02 00:25:55;;;;;;;33.13;14.57;;;;;;;;;;5030841;28;20242;-84
2022/11/02 00:28:26;;;;;;;11.90;7.47;;;;;;;;;;5025590;28;20212;-83
2022/11/02 00:30:52;;;;;;;5.63;2.53;;;;;;;;;;5030149;28;20216;-84
2022/11/02 00:33:18;;;;;;;4.00;1.50;;;;;;;;;;5037204;28;20725;-85
2022/11/02 00:35:44;;;;;;;4.63;1.70;;;;;;;;;;4991133;28;20232;-85
2022/11/02 00:38:10;;;;;;;3.50;1.63;;;;;;;;;;5024635;28;20225;-83
2022/11/02 00:40:38;;;;;;;3.37;1.40;;;;;;;;;;5018235;28;20235;-84
2022/11/02 00:43:05;;;;;;;7.10;1.60;;;;;;;;;;5029585;28;20231;-85
2022/11/02 00:45:31;;;;;;;4.33;1.60;;;;;;;;;;5014661;28;20243;-84
2022/11/02 00:48:00;;;;;;;6.47;1.40;;;;;;;;;;5010570;28;20288;-85
2022/11/02 00:50:26;;;;;;;4.50;1.40;;;;;;;;;;5027230;28;20230;-85
2022/11/02 00:52:54;;;;;;;4.30;1.57;;;;;;;;;;5026280;28;20212;-84
2022/11/02 00:55:21;;;;;;;4.50;1.27;;;;;;;;;;5028607;28;20207;-84
2022/11/02 00:57:49;;;;;;;5.43;1.50;;;;;;;;;;5010926;28;20259;-83
2022/11/02 01:00:16;;;;;;;5.03;1.50;;;;;;;;;;5026779;28;20234;-86
2022/11/02 01:02:41;;;;;;;6.87;1.70;;;;;;;;;;5008980;28;20720;-86
2022/11/02 01:05:10;;;;;;;2.90;1.57;;;;;;;;;;5032189;28;20242;-85
2022/11/02 01:07:36;;;;;;;7.80;1.40;;;;;;;;;;5029326;28;20231;-85
2022/11/02 01:10:05;;;;;;;4.20;1.40;;;;;;;;;;5037232;28;20243;-84
2022/11/02 01:12:30;;;;;;;2.37;1.23;;;;;;;;;;5027994;28;20291;-84
2022/11/02 01:14:56;;;;;;;3.13;1.50;;;;;;;;;;5015325;28;20251;-84
2022/11/02 01:17:26;;;;;;;2.87;1.40;;;;;;;;;;5038847;28;20257;-86
2022/11/02 01:19:54;;;;;;;7.60;1.60;;;;;;;;;;5024853;28;20418;-86
2022/11/02 01:22:23;;;;;;;3.73;1.30;;;;;;;;;;5040847;28;20212;-86
2022/11/02 01:24:54;;;;;;;3.33;1.50;;;;;;;;;;5038162;28;20457;-84
2022/11/02 01:27:19;;;;;;;5.93;1.67;;;;;;;;;;5039763;28;20219;-85
2022/11/02 01:29:45;;;;;;;7.37;1.60;;;;;;;;;;5023321;28;20231;-85
2022/11/02 01:32:10;;;;;;;5.03;1.10;;;;;;;;;;5035375;28;20224;-85
2022/11/02 01:34:36;;;;;;;3.50;1.30;;;;;;;;;;5028569;28;20223;-85
2022/11/02 01:37:02;;;;;;;4.30;1.80;;;;;;;;;;5027654;28;20265;-87
2022/11/02 01:39:27;;;;;;;4.00;1.60;;;;;;;;;;5010284;28;20278;-86
2022/11/02 01:41:54;;;;;;;4.20;1.70;;;;;;;;;;5036131;28;20732;-85
2022/11/02 01:44:26;;;;;;;3.93;1.70;;;;;;;;;;5030012;28;20250;-86
2022/11/02 01:46:55;;;;;;;2.00;1.17;;;;;;;;;;5019012;28;20207;-85
2022/11/02 01:49:20;;;;;;;4.70;1.77;;;;;;;;;;5033103;28;20230;-85
2022/11/02 01:51:59;;;;;;;8.30;1.43;;;;;;;;;;5036691;28;20262;-85
2022/11/02 01:54:30;;;;;;;3.07;1.50;;;;;;;;;;5053107;28;20228;-86
2022/11/02 01:57:03;;;;;;;3.83;1.47;;;;;;;;;;5053028;28;20199;-83
2022/11/02 01:59:32;;;;;;;4.30;1.57;;;;;;;;;;5030462;28;20224;-84
2022/11/02 02:02:00;;;;;;;6.63;1.80;;;;;;;;;;5054830;28;20219;-85
2022/11/02 02:04:28;;;;;;;3.13;1.47;;;;;;;;;;5034926;28;20239;-84
2022/11/02 02:06:55;;;;;;;3.87;1.50;;;;;;;;;;5036025;28;20220;-83
2022/11/02 02:09:23;;;;;;;2.60;1.43;;;;;;;;;;5014835;28;20220;-86
2022/11/02 02:11:48;;;;;;;6.70;1.40;;;;;;;;;;5027574;28;20284;-85
2022/11/02 02:14:21;;;;;;;5.60;1.70;;;;;;;;;;5035980;28;20303;-84
2022/11/02 02:16:59;;;;;;;3.60;1.40;;;;;;;;;;5038466;28;20245;-85
2022/11/02 02:19:30;;;;;;;4.73;1.70;;;;;;;;;;5033008;28;20249;-83
2022/11/02 02:22:46;;;;;;;3.07;1.20;;;;;;;;;;5052242;28;20226;-84
2022/11/02 02:25:36;;;;;;;4.47;1.50;;;;;;;;;;5046716;28;20255;-84
2022/11/02 02:28:05;;;;;;;6.20;1.70;;;;;;;;;;5038098;28;20228;-85
2022/11/02 02:30:43;;;;;;;4.63;1.30;;;;;;;;;;5017672;28;20716;-85
2022/11/02 02:33:47;;;;;;;3.27;1.27;;;;;;;;;;5036133;28;20219;-87
2022/11/02 02:36:21;;;;;;;3.07;1.30;;;;;;;;;;5024165;28;20228;-86
2022/11/02 02:38:52;;;;;;;4.37;1.70;;;;;;;;;;4997261;28;20220;-87
2022/11/02 02:41:23;;;;;;;4.47;1.40;;;;;;;;;;5019426;28;20227;-88
2022/11/02 02:43:50;;;;;;;6.20;1.77;;;;;;;;;;5031376;28;20625;-85
2022/11/02 02:46:18;;;;;;;7.83;1.97;;;;;;;;;;5013334;28;20586;-84
2022/11/02 02:48:44;;;;;;;3.70;1.70;;;;;;;;;;5018160;28;20231;-88
2022/11/02 02:51:20;;;;;;;5.67;1.73;;;;;;;;;;5031644;28;20622;-88
2022/11/02 02:53:47;;;;;;;4.27;1.43;;;;;;;;;;5033764;28;20243;-83
2022/11/02 02:56:17;;;;;;;7.77;1.70;;;;;;;;;;5015615;28;20220;-85
2022/11/02 02:58:49;;;;;;;6.13;1.47;;;;;;;;;;5002227;28;20602;-85
2022/11/02 03:01:15;;;;;;;4.10;1.43;;;;;;;;;;5016466;28;20231;-87
2022/11/02 03:03:43;;;;;;;5.13;1.50;;;;;;;;;;5019268;28;20789;-86
2022/11/02 03:06:21;;;;;;;4.83;1.33;;;;;;;;;;5017577;28;20250;-85
2022/11/02 03:09:13;;;;;;;6.60;1.30;;;;;;;;;;5023361;28;20219;-86
2022/11/02 03:12:08;;;;;;;6.27;1.83;;;;;;;;;;4971884;28;20230;-86
2022/11/02 03:15:02;;;;;;;5.77;1.80;;;;;;;;;;5008631;28;20215;-86
2022/11/02 03:17:49;;;;;;;4.07;1.43;;;;;;;;;;5003511;28;20612;-87
2022/11/02 03:20:32;;;;;;;4.10;1.33;;;;;;;;;;5016026;28;20234;-86
2022/11/02 03:23:01;;;;;;;4.83;1.50;;;;;;;;;;5002242;28;20247;-86
2022/11/02 03:25:48;;;;;;;3.80;1.20;;;;;;;;;;5041313;28;20255;-86
2022/11/02 03:28:17;;;;;;;3.43;1.47;;;;;;;;;;5021535;28;20223;-86
2022/11/02 03:30:58;;;;;;;3.80;1.60;;;;;;;;;;4999592;28;20369;-87
2022/11/02 03:33:31;;;;;;;5.17;1.40;;;;;;;;;;5017140;28;20275;-87
2022/11/02 03:36:04;;;;;;;6.07;1.73;;;;;;;;;;5023593;28;20295;-87
2022/11/02 03:38:37;;;;;;;4.70;1.63;;;;;;;;;;5039908;28;20595;-86
2022/11/02 03:41:03;;;;;;;5.07;1.53;;;;;;;;;;5018414;28;20241;-86
2022/11/02 03:43:31;;;;;;;3.93;1.57;;;;;;;;;;5002235;28;20246;-84
2022/11/02 03:46:01;;;;;;;5.00;1.70;;;;;;;;;;5020705;28;20207;-87
2022/11/02 03:48:29;;;;;;;3.07;1.40;;;;;;;;;;5014284;28;20215;-86
2022/11/02 03:50:56;;;;;;;6.03;1.53;;;;;;;;;;5021932;28;20230;-86
2022/11/02 03:53:48;;;;;;;3.90;1.30;;;;;;;;;;5012166;28;20220;-84
2022/11/02 03:56:24;;;;;;;6.90;1.50;;;;;;;;;;5012186;28;20246;-85
2022/11/02 03:58:50;;;;;;;6.63;1.53;;;;;;;;;;5018689;28;20212;-86
2022/11/02 04:01:16;;;;;;;5.30;1.63;;;;;;;;;;5036418;28;20306;-85
2022/11/02 04:03:43;;;;;;;5.07;1.93;;;;;;;;;;5023092;28;20227;-86
2022/11/02 04:06:13;;;;;;;3.53;1.50;;;;;;;;;;5041675;28;20232;-87
2022/11/02 04:08:49;;;;;;;3.03;1.53;;;;;;;;;;5024973;28;20722;-84
2022/11/02 04:19:26;;;;;;;2.87;1.70;;;;;;;;;;5039967;28;20246;-84
2022/11/02 04:19:39;;;;;;;4.50;1.57;;;;;;;;;;5052459;28;20215;-84
2022/11/02 04:25:14;;;;;;;3.77;1.47;;;;;;;;;;5042969;28;20287;-84
2022/11/02 04:27:46;;;;;;;4.47;1.40;;;;;;;;;;5030635;28;20598;-85
2022/11/02 04:30:13;;;;;;;5.80;1.70;;;;;;;;;;5037789;28;20216;-85
2022/11/02 04:35:31;;;;;;;8.70;2.00;;;;;;;;;;5022258;28;20258;-84
2022/11/02 04:40:42;;;;;;;4.43;1.40;;;;;;;;;;5019824;28;20480;-85
2022/11/02 04:43:13;;;;;;;4.67;1.80;;;;;;;;;;5015514;28;20228;-85
2022/11/02 04:45:40;;;;;;;4.87;1.60;;;;;;;;;;5003735;28;20231;-84
2022/11/02 04:48:07;;;;;;;4.73;1.63;;;;;;;;;;5024528;28;20220;-86
2022/11/02 04:50:36;;;;;;;7.10;1.37;;;;;;;;;;4993764;28;20310;-84
2022/11/02 04:53:03;;;;;;;5.50;1.87;;;;;;;;;;5020812;23;20637;-74
2022/11/02 04:55:30;;;;;;;3.73;1.40;;;;;;;;;;5042312;28;20708;-75
2022/11/02 04:57:57;;;;;;;5.13;1.90;;;;;;;;;;5029714;28;20218;-76
2022/11/02 05:00:25;;;;;;;3.60;1.33;;;;;;;;;;5053720;28;20228;-76
2022/11/02 05:02:56;;;;;;;4.20;1.43;;;;;;;;;;5066831;28;20923;-76
2022/11/02 05:05:24;;;;;;;3.97;1.27;;;;;;;;;;5026074;28;20231;-76
2022/11/02 05:07:54;;;;;;;4.93;1.70;;;;;;;;;;5021262;28;20297;-76
2022/11/02 05:10:21;;;;;;;6.13;1.50;;;;;;;;;;5032889;28;20226;-75
2022/11/02 05:12:55;;;;;;;5.43;1.57;;;;;;;;;;5043853;28;20711;-75
2022/11/02 05:15:21;;;;;;;7.27;1.63;;;;;;;;;;5041177;28;20253;-74
2022/11/02 05:17:49;;;;;;;5.73;1.70;;;;;;;;;;5075142;28;20215;-75
2022/11/02 05:20:15;;;;;;;4.33;1.70;;;;;;;;;;5055944;28;20276;-75
2022/11/02 05:22:47;;;;;;;5.03;1.50;;;;;;;;;;5061288;28;20568;-75
2022/11/02 05:25:15;;;;;;;4.83;1.63;;;;;;;;;;5020178;28;20227;-75
2022/11/02 05:27:41;;;;;;;6.50;1.77;;;;;;;;;;5041782;28;20230;-76
2022/11/02 05:30:07;;;;;;;5.03;1.43;;;;;;;;;;5012950;28;20238;-75
2022/11/02 05:32:33;;;;;;;4.90;1.50;;;;;;;;;;5040257;28;20222;-75
2022/11/02 05:35:00;;;;;;;6.50;1.90;;;;;;;;;;5057635;28;20252;-77
2022/11/02 05:37:27;;;;;;;8.13;2.07;;;;;;;;;;5044636;28;20222;-76
2022/11/02 05:39:57;;;;;;;4.27;1.53;;;;;;;;;;5038629;28;20742;-74
2022/11/02 05:42:22;;;;;;;5.90;1.63;;;;;;;;;;5042845;28;20227;-74
2022/11/02 05:44:51;;;;;;;4.87;1.60;;;;;;;;;;5044546;28;20218;-75
2022/11/02 05:47:16;;;;;;;6.67;1.83;;;;;;;;;;5037425;28;20313;-74
2022/11/02 05:49:42;;;;;;;4.67;1.63;;;;;;;;;;5040214;28;20780;-74
2022/11/02 05:52:07;;;;;;;10.43;2.03;;;;;;;;;;5022732;28;20222;-75
2022/11/02 05:54:33;;;;;;;5.40;1.47;;;;;;;;;;5041503;28;20688;-76
2022/11/02 05:57:01;;;;;;;2.93;1.27;;;;;;;;;;5029249;28;20275;-74
2022/11/02 05:59:26;;;;;;;4.97;1.70;;;;;;;;;;5036444;28;20265;-74
2022/11/02 06:01:54;;;;;;;5.93;1.70;;;;;;;;;;5031757;28;20638;-73
2022/11/02 06:04:20;;;;;;;5.50;2.20;;;;;;;;;;5013312;28;20230;-74
2022/11/02 06:06:45;;;;;;;6.53;1.50;;;;;;;;;;5040559;28;20229;-74
2022/11/02 06:09:11;;;;;;;4.47;1.90;;;;;;;;;;5020979;28;20754;-74
2022/11/02 06:11:36;;;;;;;4.20;2.20;;;;;;;;;;5041456;28;20214;-74
2022/11/02 06:14:04;;;;;;;6.93;1.90;;;;;;;;;;5038804;28;20573;-73
2022/11/02 06:16:34;;;;;;;6.60;1.67;;;;;;;;;;5025362;28;20215;-74
2022/11/02 06:19:01;;;;;;;5.20;1.90;;;;;;;;;;5040741;28;20240;-72
2022/11/02 06:21:27;;;;;;;3.87;1.80;;;;;;;;;;5040391;28;20306;-72
2022/11/02 06:23:52;;;;;;;5.50;2.20;;;;;;;;;;5009424;28;20310;-72
2022/11/02 06:26:18;;;;;;;2.93;1.50;;;;;;;;;;5055532;28;20214;-73
2022/11/02 06:28:43;;;;;;;4.63;1.70;;;;;;;;;;4995502;28;20221;-75
2022/11/02 06:31:10;;;;;;;4.50;1.90;;;;;;;;;;5037744;28;20230;-74
2022/11/02 06:33:35;;;;;;;4.60;1.87;;;;;;;;;;5013480;28;20255;-74
2022/11/02 06:36:04;;;;;;;8.00;1.63;;;;;;;;;;5039635;28;20701;-75
2022/11/02 06:38:30;;;;;;;5.10;1.93;;;;;;;;;;5041907;28;20206;-73
2022/11/02 06:40:56;;;;;;;5.40;1.60;;;;;;;;;;5057300;28;20230;-73
2022/11/02 06:43:24;;;;;;;3.00;1.27;;;;;;;;;;5034729;28;20243;-73
2022/11/02 06:45:53;;;;;;;6.07;1.53;;;;;;;;;;5026928;28;20263;-74
2022/11/02 06:48:18;;;;;;;7.50;1.67;;;;;;;;;;5019078;28;20219;-73
2022/11/02 06:50:44;;;;;;;2.50;1.40;;;;;;;;;;5042465;28;20226;-73
2022/11/02 06:53:11;;;;;;;4.23;1.80;;;;;;;;;;5042039;28;20219;-73
2022/11/02 06:55:37;;;;;;;6.90;1.70;;;;;;;;;;5026071;28;20219;-73
2022/11/02 06:58:05;;;;;;;7.27;1.90;;;;;;;;;;4997830;28;20234;-73
2022/11/02 07:00:33;;;;;;;3.73;1.80;;;;;;;;;;5034506;28;20230;-76
2022/11/02 07:03:03;;;;;;;7.13;1.90;;;;;;;;;;5023414;28;20282;-72
2022/11/02 07:05:32;;;;;;;5.10;1.93;;;;;;;;;;5038520;28;20238;-71
2022/11/02 07:07:58;;;;;;;4.40;1.60;;;;;;;;;;5042368;23;20225;-83
2022/11/02 07:10:41;;;;;;;5.50;2.10;;;;;;;;;;5039685;28;20916;-84
2022/11/02 07:13:09;;;;;;;5.20;1.67;;;;;;;;;;4988890;28;20231;-84
2022/11/02 07:15:40;;;;;;;5.17;1.53;;;;;;;;;;5011453;28;20217;-84
2022/11/02 07:18:08;;;;;;;4.87;1.97;;;;;;;;;;4990652;28;20320;-84
2022/11/02 07:20:34;;;;;;;6.17;2.07;;;;;;;;;;5019976;28;20224;-85
2022/11/02 07:23:03;;;;;;;5.80;1.73;;;;;;;;;;5012271;28;20216;-85
2022/11/02 07:25:32;;;;;;;7.67;1.83;;;;;;;;;;5004813;28;20254;-86
2022/11/02 07:28:00;;;;;;;5.23;1.67;;;;;;;;;;5016374;28;20224;-83
2022/11/02 07:30:27;;;;;;;5.40;2.47;;;;;;;;;;5029498;28;20238;-86
2022/11/02 07:33:05;;;;;;;4.70;1.93;;;;;;;;;;5003883;28;20213;-83
2022/11/02 07:35:33;;;;;;;7.03;2.40;;;;;;;;;;5014269;28;20325;-88
2022/11/02 07:38:04;;;;;;;4.17;2.27;;;;;;;;;;5028630;28;20920;-82
2022/11/02 07:40:30;;;;;;;3.67;1.47;;;;;;;;;;4986226;28;20217;-84
2022/11/02 07:42:56;;;;;;;4.53;1.47;;;;;;;;;;4996646;28;20232;-83
2022/11/02 07:45:33;;;;;;;4.77;1.90;;;;;;;;;;4984827;28;20225;-83
2022/11/02 07:48:12;;;;;;;3.60;1.90;;;;;;;;;;5063998;27;20581;-73
2022/11/02 07:50:38;;;;;;;3.77;1.43;;;;;;;;;;5051492;28;20220;-73
2022/11/02 07:53:03;;;;;;;4.57;1.73;;;;;;;;;;5036304;28;20677;-74
2022/11/02 07:55:32;;;;;;;4.27;1.40;;;;;;;;;;5044355;28;20326;-73
2022/11/02 07:58:02;;;;;;;5.63;2.10;;;;;;;;;;5045142;28;20223;-72
2022/11/02 08:00:31;;;;;;;4.63;1.57;;;;;;;;;;5016613;28;20284;-72
2022/11/02 08:03:00;;;;;;;3.60;1.53;;;;;;;;;;5023926;28;20231;-73
2022/11/02 08:05:29;;;;;;;5.47;1.53;;;;;;;;;;5021451;28;20217;-73
2022/11/02 08:08:03;;;;;;;4.67;1.80;;;;;;;;;;5042049;28;20242;-73
2022/11/02 08:10:30;;;;;;;4.60;1.60;;;;;;;;;;5054595;28;20284;-72
2022/11/02 08:13:00;;;;;;;4.77;1.83;;;;;;;;;;5029788;28;20222;-74
2022/11/02 08:15:26;;;;;;;4.90;1.47;;;;;;;;;;5029027;28;20991;-74
2022/11/02 08:18:06;;;;;;;5.27;1.70;;;;;;;;;;5051542;28;20230;-73
2022/11/02 08:20:32;;;;;;;3.83;1.57;;;;;;;;;;5054463;28;20704;-74
2022/11/02 08:22:58;;;;;;;6.47;2.13;;;;;;;;;;5053136;28;20227;-73
2022/11/02 08:25:23;;;;;;;5.03;2.17;;;;;;;;;;5038375;28;20227;-73
2022/11/02 08:27:49;;;;;;;5.50;1.97;;;;;;;;;;5036644;28;20248;-74
2022/11/02 08:30:17;;;;;;;4.87;2.13;;;;;;;;;;5030976;28;20242;-73
2022/11/02 08:32:45;;;;;;;3.30;2.00;;;;;;;;;;5037942;28;20230;-72
2022/11/02 08:35:13;;;;;;;6.00;1.80;;;;;;;;;;5038906;28;20227;-73
2022/11/02 08:37:38;;;;;;;4.27;1.57;;;;;;;;;;5035343;28;20214;-73
2022/11/02 08:40:06;;;;;;;5.50;2.23;;;;;;;;;;5049438;28;20219;-72
2022/11/02 08:42:37;;;;;;;6.10;1.70;;;;;;;;;;5043006;28;20759;-73
2022/11/02 08:45:05;;;;;;;7.03;1.83;;;;;;;;;;5058253;28;20280;-72
2022/11/02 08:47:31;;;;;;;5.20;2.00;;;;;;;;;;5023519;28;20277;-72
2022/11/02 08:50:01;;;;;;;4.72;1.77;;;;;;;;;;5023957;28;20222;-73
2022/11/02 08:52:37;;;;;;;4.57;1.33;;;;;;;;;;5022322;28;20721;-74
2022/11/02 08:55:03;;;;;;;5.43;1.87;;;;;;;;;;5028715;28;20274;-73
2022/11/02 08:57:29;;;;;;;4.03;1.80;;;;;;;;;;5031932;28;20218;-76
2022/11/02 08:59:54;;;;;;;5.07;2.67;;;;;;;;;;5024664;28;20742;-73
2022/11/02 09:02:24;;;;;;;4.38;1.65;;;;;;;;;;5007672;28;22373;-74
2022/11/02 09:04:52;;;;;;;4.80;2.30;;;;;;;;;;5020539;28;20306;-74
2022/11/02 09:07:18;;;;;;;5.27;2.73;;;;;;;;;;5040967;28;20227;-72
2022/11/02 09:09:44;;;;;;;3.05;1.60;;;;;;;;;;5025562;28;20224;-72
2022/11/02 09:12:09;;;;;;;2.90;1.20;;;;;;;;;;5041319;28;20219;-72
2022/11/02 09:14:38;;;;;;;4.20;1.57;;;;;;;;;;5039318;28;20223;-71
2022/11/02 09:17:03;;;;;;;3.73;1.60;;;;;;;;;;5008614;28;20606;-71
2022/11/02 09:19:33;;;;;;;4.27;1.57;;;;;;;;;;5022931;28;20223;-73
2022/11/02 09:21:59;;;;;;;3.07;1.30;;;;;;;;;;4995440;28;20224;-72
2022/11/02 09:24:25;;;;;;;5.68;1.70;;;;;;;;;;5003204;28;20820;-72
2022/11/02 09:26:51;;;;;;;5.83;1.40;;;;;;;;;;5032359;28;20246;-74
2022/11/02 09:29:17;;;;;;;3.10;1.40;;;;;;;;;;4992390;28;20215;-72
2022/11/02 09:31:43;;;;;;;3.73;1.50;;;;;;;;;;5007764;28;20300;-73
2022/11/02 09:34:08;;;;;;;4.47;1.42;;;;;;;;;;4992476;28;20227;-72
2022/11/02 09:36:34;;;;;;;5.60;1.63;;;;;;;;;;5026405;28;20257;-74
2022/11/02 09:38:59;;;;;;;10.47;1.80;;;;;;;;;;5011576;28;20606;-71
2022/11/02 09:41:45;;;;;;;3.87;1.50;;;;;;;;;;5010859;28;20237;-71
2022/11/02 09:44:18;;;;;;;4.87;1.47;;;;;;;;;;5036019;28;20219;-71
2022/11/02 09:46:44;;;;;;;5.80;1.47;;;;;;;;;;5013729;28;20307;-74
2022/11/02 09:49:27;;;;;;;5.90;1.67;;;;;;;;;;5010753;28;20358;-73
2022/11/02 09:51:54;;;;;;;3.83;1.30;;;;;;;;;;5033163;28;20224;-72
2022/11/02 09:54:39;;;;;;;6.17;1.60;;;;;;;;;;5032142;28;20275;-71
2022/11/02 09:57:08;;;;;;;4.80;1.30;;;;;;;;;;5022435;28;20228;-71
2022/11/02 09:59:33;;;;;;;5.97;1.60;;;;;;;;;;5014670;28;20231;-72
2022/11/02 10:02:40;;;;;;;3.37;1.40;;;;;;;;;;5023887;28;20605;-73
2022/11/02 10:05:23;;;;;;;4.30;1.30;;;;;;;;;;5015910;28;20216;-73
2022/11/02 10:08:19;;;;;;;3.95;1.50;;;;;;;;;;5043140;28;20227;-74
2022/11/02 10:11:22;;;;;;;2.97;1.27;;;;;;;;;;5031129;28;20756;-73
2022/11/02 10:13:59;;;;;;;3.97;1.67;;;;;;;;;;5039593;28;20230;-73
2022/11/02 10:16:39;;;;;;;4.73;1.70;;;;;;;;;;5013279;28;20779;-73
2022/11/02 10:19:12;;;;;;;4.27;1.57;;;;;;;;;;5012559;28;20696;-72
2022/11/02 10:21:38;;;;;;;4.53;1.40;;;;;;;;;;5005955;28;20222;-73
2022/11/02 10:24:11;;;;;;;5.13;1.30;;;;;;;;;;5005610;28;20318;-73
2022/11/02 10:26:42;;;;;;;3.50;1.63;;;;;;;;;;5029048;28;20231;-74
2022/11/02 10:29:45;;;;;;;6.10;1.37;;;;;;;;;;5024507;28;20841;-72
2022/11/02 10:32:11;;;;;;;3.63;1.60;;;;;;;;;;5040794;28;20277;-72
2022/11/02 10:34:36;;;;;;;4.37;1.40;;;;;;;;;;5041561;28;20620;-73
2022/11/02 10:37:08;;;;;;;2.17;1.23;;;;;;;;;;5029419;28;20220;-72
2022/11/02 10:40:02;;;;;;;4.70;1.37;;;;;;;;;;5043872;28;20219;-72
2022/11/02 10:42:30;;;;;;;1.83;1.10;;;;;;;;;;5026487;28;20227;-71
2022/11/02 10:45:13;;;;;;;4.47;1.20;;;;;;;;;;5038699;28;20595;-73
2022/11/02 10:47:51;;;;;;;7.00;1.63;;;;;;;;;;5031640;28;20306;-72
2022/11/02 10:50:37;;;;;;;4.93;1.20;;;;;;;;;;5037070;28;20231;-72
2022/11/02 10:53:02;;;;;;;2.57;1.33;;;;;;;;;;5026624;28;20238;-72
2022/11/02 10:55:50;;;;;;;6.00;1.50;;;;;;;;;;5012732;28;20224;-72
2022/11/02 10:58:18;;;;;;;5.33;1.47;;;;;;;;;;5011632;28;20212;-73
2022/11/02 11:00:47;;;;;;;5.10;1.30;;;;;;;;;;5027023;28;20632;-72
2022/11/02 11:03:14;;;;;;;3.87;1.60;;;;;;;;;;5023198;28;20231;-72
2022/11/02 11:05:48;;;;;;;5.33;1.30;;;;;;;;;;5023146;28;20243;-73
2022/11/02 11:08:41;;;;;;;4.50;1.40;;;;;;;;;;5040963;28;20234;-72
2022/11/02 11:11:27;;;;;;;3.33;1.23;;;;;;;;;;5029428;28;20608;-73
2022/11/02 11:13:56;;;;;;;5.45;1.58;;;;;;;;;;5028942;28;20238;-73
2022/11/02 11:16:42;;;;;;;2.93;1.27;;;;;;;;;;5041545;28;20219;-73
2022/11/02 11:19:24;;;;;;;4.57;1.50;;;;;;;;;;5010859;28;20242;-76
2022/11/02 11:21:50;;;;;;;3.60;1.23;;;;;;;;;;5042205;28;20398;-73
2022/11/02 11:24:23;;;;;;;1.98;1.20;;;;;;;;;;5034228;28;20231;-72
2022/11/02 11:27:12;;;;;;;5.20;1.20;;;;;;;;;;5036080;28;20601;-73
2022/11/02 11:29:39;;;;;;;2.33;1.00;;;;;;;;;;5036728;28;20274;-73
2022/11/02 11:32:17;;;;;;;3.13;0.93;;;;;;;;;;4990105;28;20224;-73
2022/11/02 11:34:49;;;;;;;3.77;1.30;;;;;;;;;;5020624;28;20285;-72
2022/11/02 11:37:17;;;;;;;3.87;1.13;;;;;;;;;;5018278;28;20749;-73
2022/11/02 11:39:44;;;;;;;3.33;0.88;;;;;;;;;;5004617;28;20219;-73
2022/11/02 11:42:18;;;;;;;1.67;0.93;;;;;;;;;;4989835;28;20215;-77
2022/11/02 11:44:57;;;;;;;2.78;1.10;;;;;;;;;;5022958;28;20247;-72
2022/11/02 11:47:27;;;;;;;3.05;1.10;;;;;;;;;;5021999;28;20251;-74
2022/11/02 11:49:52;;;;;;;3.07;1.17;;;;;;;;;;4994851;28;20215;-74
2022/11/02 11:52:21;;;;;;;3.40;1.13;;;;;;;;;;5014428;28;20601;-73
2022/11/02 11:55:18;;;;;;;5.55;1.20;;;;;;;;;;5037868;28;20298;-73
2022/11/02 11:57:46;;;;;;;11.60;1.20;;;;;;;;;;5027354;28;20638;-75
2022/11/02 12:00:30;;;;;;;3.83;0.88;;;;;;;;;;5015258;28;20220;-74
2022/11/02 12:03:04;;;;;;;3.17;1.13;;;;;;;;;;5023131;28;20709;-74
2022/11/02 12:05:30;;;;;;;2.00;1.00;;;;;;;;;;5052055;28;20222;-74
2022/11/02 12:08:17;;;;;;;1.90;0.90;;;;;;;;;;5034912;28;20701;-75
2022/11/02 12:10:51;;;;;;;4.93;0.90;;;;;;;;;;5037544;28;20788;-73
2022/11/02 12:13:27;;;;;;;2.67;1.17;;;;;;;;;;5025916;28;20222;-74
2022/11/02 12:16:24;;;;;;;5.90;1.10;;;;;;;;;;5034432;28;20718;-75
2022/11/02 12:19:04;;;;;;;1.80;0.90;;;;;;;;;;5039632;28;20228;-74
2022/11/02 12:21:53;;;;;;;3.67;1.10;;;;;;;;;;5039790;28;20223;-74
2022/11/02 12:24:36;;;;;;;3.93;1.63;;;;;;;;;;5004089;28;20231;-73
2022/11/02 12:27:19;;;;;;;3.13;1.10;;;;;;;;;;5038534;28;20231;-73
2022/11/02 12:29:53;;;;;;;3.78;1.02;;;;;;;;;;5019554;28;20640;-73
2022/11/02 12:32:28;;;;;;;2.58;1.00;;;;;;;;;;5051998;28;20246;-74
2022/11/02 12:35:04;;;;;;;2.05;1.10;;;;;;;;;;5040500;28;20922;-73
2022/11/02 12:37:55;;;;;;;4.60;1.23;;;;;;;;;;5040021;28;20251;-73
2022/11/02 12:40:44;;;;;;;2.33;0.80;;;;;;;;;;5043782;28;20706;-73
2022/11/02 12:43:39;;;;;;;5.00;1.17;;;;;;;;;;5031462;28;20724;-73
2022/11/02 12:46:07;;;;;;;1.50;0.70;;;;;;;;;;5043494;28;20242;-73
2022/11/02 12:48:55;;;;;;;2.75;0.80;;;;;;;;;;5038780;28;20610;-73
2022/11/02 12:51:28;;;;;;;2.57;0.80;;;;;;;;;;5029294;28;20216;-73
2022/11/02 12:53:58;;;;;;;2.75;0.90;;;;;;;;;;5038156;28;20262;-74
2022/11/02 12:56:58;;;;;;;2.33;1.00;;;;;;;;;;5040737;28;20223;-73
2022/11/02 12:59:29;;;;;;;2.13;0.90;;;;;;;;;;5036915;28;20224;-73
2022/11/02 13:02:05;;;;;;;2.08;0.95;;;;;;;;;;5025252;28;20223;-75
2022/11/02 13:04:48;;;;;;;3.35;1.10;;;;;;;;;;5015347;28;20220;-74
2022/11/02 13:07:21;;;;;;;3.70;0.95;;;;;;;;;;5032860;28;20220;-74
2022/11/02 13:09:58;;;;;;;4.20;1.10;;;;;;;;;;5014768;28;20247;-74
2022/11/02 13:12:25;;;;;;;4.22;1.38;;;;;;;;;;5006218;28;20235;-73
2022/11/02 13:14:56;;;;;;;1.87;0.97;;;;;;;;;;5009872;28;20219;-74
2022/11/02 13:17:32;;;;;;;3.80;1.00;;;;;;;;;;5028484;28;20223;-73
2022/11/02 13:20:32;;;;;;;2.72;0.90;;;;;;;;;;5023858;28;20230;-75
2022/11/02 13:23:04;;;;;;;4.07;1.10;;;;;;;;;;5006722;28;20232;-74
2022/11/02 13:25:35;;;;;;;2.05;0.75;;;;;;;;;;5023196;28;20307;-75
2022/11/02 13:28:02;;;;;;;2.37;0.77;;;;;;;;;;5037370;28;20721;-75
2022/11/02 13:30:30;;;;;;;3.20;1.17;;;;;;;;;;4994015;28;20227;-74
2022/11/02 13:33:20;;;;;;;3.50;1.25;;;;;;;;;;5039446;28;20212;-75
2022/11/02 13:35:50;;;;;;;5.03;0.98;;;;;;;;;;5023178;28;20282;-73
2022/11/02 13:38:34;;;;;;;2.30;1.10;;;;;;;;;;5022021;28;20717;-73
2022/11/02 13:41:24;;;;;;;2.25;0.90;;;;;;;;;;5048240;28;20250;-74
2022/11/02 13:44:20;;;;;;;3.40;0.80;;;;;;;;;;5039246;28;20228;-75
2022/11/02 13:47:04;;;;;;;3.10;1.00;;;;;;;;;;5031454;28;20220;-72
2022/11/02 13:49:48;;;;;;;3.40;1.13;;;;;;;;;;5026276;28;20231;-75
2022/11/02 13:52:20;;;;;;;1.87;0.90;;;;;;;;;;5012218;28;20231;-75
2022/11/02 13:54:53;;;;;;;1.37;0.70;;;;;;;;;;5023968;28;20234;-74
2022/11/02 13:57:21;;;;;;;3.77;0.90;;;;;;;;;;5023944;28;20231;-74
2022/11/02 13:59:49;;;;;;;2.40;1.10;;;;;;;;;;5039247;28;20224;-74
2022/11/02 14:02:17;;;;;;;3.55;1.00;;;;;;;;;;5002139;28;20224;-74
2022/11/02 14:04:42;;;;;;;3.20;1.07;;;;;;;;;;5023230;28;20251;-74
2022/11/02 14:07:22;;;;;;;3.57;1.23;;;;;;;;;;5006047;28;20220;-75
2022/11/02 14:09:48;;;;;;;2.27;0.90;;;;;;;;;;5014206;28;20223;-74
2022/11/02 14:12:18;;;;;;;2.50;1.20;;;;;;;;;;5010257;28;20709;-74
2022/11/02 14:14:44;;;;;;;3.03;1.10;;;;;;;;;;5045921;28;20222;-74
2022/11/02 14:17:13;;;;;;;2.60;1.20;;;;;;;;;;5008141;28;20224;-73
2022/11/02 14:19:41;;;;;;;6.57;1.30;;;;;;;;;;5021544;28;20299;-74
2022/11/02 14:22:11;;;;;;;1.83;0.87;;;;;;;;;;5039042;28;20319;-74
2022/11/02 14:24:37;;;;;;;5.53;1.37;;;;;;;;;;5003124;28;20224;-74
2022/11/02 14:27:09;;;;;;;1.53;1.10;;;;;;;;;;5018249;28;20282;-74
2022/11/02 14:29:43;;;;;;;3.40;1.00;;;;;;;;;;5027587;28;20232;-74
2022/11/02 14:32:25;;;;;;;2.30;1.30;;;;;;;;;;5038341;28;20230;-74
2022/11/02 14:35:00;;;;;;;2.93;1.33;;;;;;;;;;5024236;28;20284;-74
2022/11/02 14:37:30;;;;;;;4.37;1.27;;;;;;;;;;5038678;28;20706;-75
2022/11/02 14:39:59;;;;;;;2.47;0.90;;;;;;;;;;5034875;28;20285;-75
2022/11/02 14:43:02;;;;;;;5.47;1.03;;;;;;;;;;5024382;28;20273;-74
2022/11/02 14:45:43;;;;;;;1.57;0.80;;;;;;;;;;4990912;28;20228;-74
2022/11/02 14:48:12;;;;;;;3.17;1.23;;;;;;;;;;5007390;28;20232;-75
2022/11/02 14:50:37;;;;;;;3.80;1.30;;;;;;;;;;4997001;28;20822;-74
2022/11/02 14:53:07;;;;;;;3.80;1.20;;;;;;;;;;5036804;28;20238;-74
2022/11/02 14:55:36;;;;;;;5.37;1.50;;;;;;;;;;5009476;28;20224;-75
2022/11/02 14:58:04;;;;;;;3.53;1.30;;;;;;;;;;4996278;28;20228;-74
2022/11/02 15:00:56;;;;;;;7.03;1.40;;;;;;;;;;5035198;28;20751;-75
2022/11/02 15:03:27;;;;;;;3.27;1.40;;;;;;;;;;5020000;28;20855;-74
2022/11/02 15:06:05;;;;;;;3.87;1.50;;;;;;;;;;5028071;28;20223;-75
2022/11/02 15:08:35;;;;;;;2.83;1.40;;;;;;;;;;5027611;28;20277;-75
2022/11/02 15:11:39;;;;;;;3.23;1.40;;;;;;;;;;5014261;28;20256;-75
2022/11/02 15:14:39;;;;;;;3.13;1.33;;;;;;;;;;5036771;28;20239;-75
2022/11/02 15:17:16;;;;;;;4.13;1.30;;;;;;;;;;5025244;28;20694;-75
2022/11/02 15:19:45;;;;;;;3.03;1.30;;;;;;;;;;5028814;28;20223;-76
2022/11/02 15:22:40;;;;;;;4.13;1.33;;;;;;;;;;5036194;28;20265;-74
2022/11/02 15:25:14;;;;;;;3.03;1.40;;;;;;;;;;5026503;28;20663;-75
2022/11/02 15:27:41;;;;;;;2.90;1.43;;;;;;;;;;5022492;28;20238;-75